Amherst, Texas
Current Conditions -  °F | °C
As of 1:15 AM on Saturday 25 Oct 2014 (Local Time) from KPVW Reporting Station
Clear Clear  
Wind Chill: 57°   Ceiling: Unl
Heat Index: 57°   Visibility: 10mi
Dew Point: 51°   Wind: 5mph
Humidity: 81%   Direction: 210°SSW
Pressure: 30.16"   Gusts: NA
Location:  34.01°N, 102.42°W
Report Text: KPVW 250615Z AUTO 21004KT 10SM CLR 14/11 A3016 RMK AO2 T01400108
Loading
Personal Weather Stations






























Interactive Weather Map
Tropical Storm Tracking
New forecast layout! Learn more

10-Day Weather Forecast

Advertisements
Track Severe Weather on mobile